Baylis, Illinois
Current Conditions -  °F | °C
As of 9:15 AM on Thursday 23 Oct 2014 (Local Time) from KPPQ Reporting Station
Clear Clear  
Wind Chill: 45°   Ceiling: Unl
Heat Index: 48°   Visibility: 10mi
Dew Point: 43°   Wind: 6mph
Humidity: 83%   Direction: 160°SSE
Pressure: 30.18"   Gusts: NA
Location:  39.73°N, 90.91°W
Report Text: KPPQ 231415Z AUTO 16005KT 10SM CLR 09/06 A3018 RMK AO2 T00870060
Loading
Personal Weather Stations






























Interactive Weather Map
Tropical Storm Tracking
New forecast layout! Learn more

10-Day Weather Forecast

Advertisements
Track Severe Weather on mobile